sensor_id;sensor_type;location;lat;lon;timestamp;pressure;altitude;pressure_sealevel;temperature;humidity
29385;BME280;16367;48.736;9.218;2022-07-23T00:01:56;-23924.22;;;24.06;64.79
29385;BME280;16367;48.736;9.218;2022-07-23T00:04:00;-23923.25;;;24.03;64.80
29385;BME280;16367;48.736;9.218;2022-07-23T00:06:03;-23926.38;;;24.13;64.79
29385;BME280;16367;48.736;9.218;2022-07-23T00:08:11;-23924.50;;;24.07;64.98
29385;BME280;16367;48.736;9.218;2022-07-23T00:10:15;-23921.84;;;23.99;64.50
29385;BME280;16367;48.736;9.218;2022-07-23T00:12:18;-23923.56;;;24.04;63.31
29385;BME280;16367;48.736;9.218;2022-07-23T00:14:20;-23922.31;;;24.00;62.67
29385;BME280;16367;48.736;9.218;2022-07-23T00:16:23;-23923.25;;;24.03;61.77
29385;BME280;16367;48.736;9.218;2022-07-23T00:18:27;-23922.47;;;24.01;61.46
29385;BME280;16367;48.736;9.218;2022-07-23T00:20:29;-23921.22;;;23.97;60.36
29385;BME280;16367;48.736;9.218;2022-07-23T00:22:32;-23921.69;;;23.98;59.89
29385;BME280;16367;48.736;9.218;2022-07-23T00:24:36;-23924.22;;;24.06;59.89
29385;BME280;16367;48.736;9.218;2022-07-23T00:26:39;-23923.25;;;24.03;59.15
29385;BME280;16367;48.736;9.218;2022-07-23T00:28:42;-23922.94;;;24.02;59.68
29385;BME280;16367;48.736;9.218;2022-07-23T00:30:45;-23921.06;;;23.96;60.04
29385;BME280;16367;48.736;9.218;2022-07-23T00:32:50;-23922.16;;;24.00;61.06
29385;BME280;16367;48.736;9.218;2022-07-23T00:34:57;-23922.47;;;24.01;60.79
29385;BME280;16367;48.736;9.218;2022-07-23T00:37:00;-23917.94;;;23.86;61.72
29385;BME280;16367;48.736;9.218;2022-07-23T00:39:02;-23913.25;;;23.71;63.33
29385;BME280;16367;48.736;9.218;2022-07-23T00:41:07;-23907.31;;;23.52;64.32
29385;BME280;16367;48.736;9.218;2022-07-23T00:43:10;-23905.75;;;23.47;65.78
29385;BME280;16367;48.736;9.218;2022-07-23T00:45:13;-23904.19;;;23.42;65.95
29385;BME280;16367;48.736;9.218;2022-07-23T00:47:16;-23899.34;;;23.26;67.29
29385;BME280;16367;48.736;9.218;2022-07-23T00:49:19;-23901.22;;;23.32;66.89
29385;BME280;16367;48.736;9.218;2022-07-23T00:51:22;-23902.16;;;23.35;65.82
29385;BME280;16367;48.736;9.218;2022-07-23T00:53:25;-23899.66;;;23.27;66.52
29385;BME280;16367;48.736;9.218;2022-07-23T00:55:28;-23896.84;;;23.18;66.37
29385;BME280;16367;48.736;9.218;2022-07-23T00:57:32;-23897.78;;;23.21;66.84
29385;BME280;16367;48.736;9.218;2022-07-23T00:59:35;-23900.75;;;23.31;65.97
29385;BME280;16367;48.736;9.218;2022-07-23T01:01:38;-23900.59;;;23.30;66.31
29385;BME280;16367;48.736;9.218;2022-07-23T01:03:41;-23897.94;;;23.22;65.94
29385;BME280;16367;48.736;9.218;2022-07-23T01:05:44;-23896.22;;;23.16;65.96
29385;BME280;16367;48.736;9.218;2022-07-23T01:07:48;-23897.00;;;23.19;66.07
29385;BME280;16367;48.736;9.218;2022-07-23T01:09:56;-23899.50;;;23.27;66.08
29385;BME280;16367;48.736;9.218;2022-07-23T01:12:00;-23897.31;;;23.20;66.46
29385;BME280;16367;48.736;9.218;2022-07-23T01:14:16;-23896.69;;;23.18;66.26
29385;BME280;16367;48.736;9.218;2022-07-23T01:16:19;-23897.31;;;23.20;65.74
29385;BME280;16367;48.736;9.218;2022-07-23T01:18:22;-23895.44;;;23.14;66.40
29385;BME280;16367;48.736;9.218;2022-07-23T01:20:24;-23892.31;;;23.04;67.11
29385;BME280;16367;48.736;9.218;2022-07-23T01:22:29;-23894.97;;;23.12;65.95
29385;BME280;16367;48.736;9.218;2022-07-23T01:24:32;-23892.94;;;23.06;66.23
29385;BME280;16367;48.736;9.218;2022-07-23T01:26:35;-23891.38;;;23.01;67.04
29385;BME280;16367;48.736;9.218;2022-07-23T01:28:38;-23894.19;;;23.10;66.57
29385;BME280;16367;48.736;9.218;2022-07-23T01:30:40;-23890.75;;;22.98;65.84
29385;BME280;16367;48.736;9.218;2022-07-23T01:32:43;-23891.69;;;23.02;65.67
29385;BME280;16367;48.736;9.218;2022-07-23T01:34:46;-23894.81;;;23.12;65.30
29385;BME280;16367;48.736;9.218;2022-07-23T01:36:48;-23892.78;;;23.05;65.98
29385;BME280;16367;48.736;9.218;2022-07-23T01:38:52;-23890.59;;;22.98;65.40
29385;BME280;16367;48.736;9.218;2022-07-23T01:42:58;-23892.63;;;23.05;65.84
29385;BME280;16367;48.736;9.218;2022-07-23T01:45:01;-23895.28;;;23.13;66.90
29385;BME280;16367;48.736;9.218;2022-07-23T01:47:04;-23886.38;;;22.84;67.97
29385;BME280;16367;48.736;9.218;2022-07-23T01:49:07;-23887.00;;;22.86;67.60
29385;BME280;16367;48.736;9.218;2022-07-23T01:51:10;-23889.50;;;22.94;67.49
29385;BME280;16367;48.736;9.218;2022-07-23T01:53:13;-23889.50;;;22.94;67.19
29385;BME280;16367;48.736;9.218;2022-07-23T01:55:18;-23889.19;;;22.93;67.27
29385;BME280;16367;48.736;9.218;2022-07-23T01:57:20;-23883.22;;;22.74;68.30
29385;BME280;16367;48.736;9.218;2022-07-23T01:59:23;-23880.72;;;22.66;69.10
29385;BME280;16367;48.736;9.218;2022-07-23T02:01:26;-23877.75;;;22.57;69.29
29385;BME280;16367;48.736;9.218;2022-07-23T02:03:29;-23874.16;;;22.45;69.86
29385;BME280;16367;48.736;9.218;2022-07-23T02:05:32;-23874.47;;;22.46;70.28
29385;BME280;16367;48.736;9.218;2022-07-23T02:07:35;-23877.59;;;22.56;70.04
29385;BME280;16367;48.736;9.218;2022-07-23T02:09:37;-23874.63;;;22.47;70.60
29385;BME280;16367;48.736;9.218;2022-07-23T02:11:42;-23871.19;;;22.36;70.94
29385;BME280;16367;48.736;9.218;2022-07-23T02:13:45;-23869.47;;;22.30;71.77
29385;BME280;16367;48.736;9.218;2022-07-23T02:15:47;-23870.09;;;22.32;71.95
29385;BME280;16367;48.736;9.218;2022-07-23T02:17:50;-23866.94;;;22.22;72.55
29385;BME280;16367;48.736;9.218;2022-07-23T02:19:53;-23867.72;;;22.24;72.93
29385;BME280;16367;48.736;9.218;2022-07-23T02:21:56;-23871.34;;;22.36;73.04
29385;BME280;16367;48.736;9.218;2022-07-23T02:23:58;-23864.44;;;22.14;73.82
29385;BME280;16367;48.736;9.218;2022-07-23T02:26:01;-23864.44;;;22.14;74.13
29385;BME280;16367;48.736;9.218;2022-07-23T02:28:05;-23865.06;;;22.16;74.56
29385;BME280;16367;48.736;9.218;2022-07-23T02:30:09;-23866.16;;;22.19;74.67
29385;BME280;16367;48.736;9.218;2022-07-23T02:32:12;-23868.84;;;22.28;74.82
29385;BME280;16367;48.736;9.218;2022-07-23T02:34:15;-23866.31;;;22.20;75.25
29385;BME280;16367;48.736;9.218;2022-07-23T02:36:17;-23863.03;;;22.09;75.37
29385;BME280;16367;48.736;9.218;2022-07-23T02:38:20;-23863.81;;;22.12;75.70
29385;BME280;16367;48.736;9.218;2022-07-23T02:40:23;-23866.63;;;22.21;75.49
29385;BME280;16367;48.736;9.218;2022-07-23T02:42:26;-23866.16;;;22.19;75.44
29385;BME280;16367;48.736;9.218;2022-07-23T02:44:30;-23866.78;;;22.21;75.43
29385;BME280;16367;48.736;9.218;2022-07-23T02:46:33;-23861.31;;;22.04;76.00
29385;BME280;16367;48.736;9.218;2022-07-23T02:48:35;-23859.44;;;21.98;76.56
29385;BME280;16367;48.736;9.218;2022-07-23T02:50:38;-23859.44;;;21.98;76.28
29385;BME280;16367;48.736;9.218;2022-07-23T02:52:41;-23855.22;;;21.84;77.02
29385;BME280;16367;48.736;9.218;2022-07-23T02:54:44;-23861.00;;;22.03;76.44
29385;BME280;16367;48.736;9.218;2022-07-23T02:56:47;-23864.44;;;22.14;76.53
29385;BME280;16367;48.736;9.218;2022-07-23T02:58:52;-23866.16;;;22.19;75.80
29385;BME280;16367;48.736;9.218;2022-07-23T03:00:56;-23858.81;;;21.96;76.52
29385;BME280;16367;48.736;9.218;2022-07-23T03:02:59;-23865.84;;;22.18;75.84
29385;BME280;16367;48.736;9.218;2022-07-23T03:05:02;-23865.69;;;22.18;75.93
29385;BME280;16367;48.736;9.218;2022-07-23T03:07:05;-23866.63;;;22.21;75.24
29385;BME280;16367;48.736;9.218;2022-07-23T03:09:08;-23863.97;;;22.12;75.60
29385;BME280;16367;48.736;9.218;2022-07-23T03:11:11;-23864.75;;;22.15;75.34
29385;BME280;16367;48.736;9.218;2022-07-23T03:13:13;-23866.16;;;22.19;75.25
29385;BME280;16367;48.736;9.218;2022-07-23T03:15:16;-23867.59;;;22.24;74.83
29385;BME280;16367;48.736;9.218;2022-07-23T03:17:20;-23865.06;;;22.16;75.12
29385;BME280;16367;48.736;9.218;2022-07-23T03:19:23;-23861.78;;;22.05;75.41
29385;BME280;16367;48.736;9.218;2022-07-23T03:21:26;-23863.03;;;22.09;75.82
29385;BME280;16367;48.736;9.218;2022-07-23T03:23:28;-23861.47;;;22.04;75.94
29385;BME280;16367;48.736;9.218;2022-07-23T03:25:31;-23863.50;;;22.11;76.55
29385;BME280;16367;48.736;9.218;2022-07-23T03:27:34;-23864.28;;;22.13;75.58
29385;BME280;16367;48.736;9.218;2022-07-23T03:29:37;-23868.50;;;22.27;75.46
29385;BME280;16367;48.736;9.218;2022-07-23T03:31:39;-23867.41;;;22.23;75.46
29385;BME280;16367;48.736;9.218;2022-07-23T03:33:43;-23864.13;;;22.13;75.73
29385;BME280;16367;48.736;9.218;2022-07-23T03:35:47;-23868.34;;;22.26;75.22
29385;BME280;16367;48.736;9.218;2022-07-23T03:37:50;-23869.75;;;22.31;74.94
29385;BME280;16367;48.736;9.218;2022-07-23T03:39:52;-23863.03;;;22.09;75.86
29385;BME280;16367;48.736;9.218;2022-07-23T03:41:55;-23860.38;;;22.01;76.51
29385;BME280;16367;48.736;9.218;2022-07-23T03:43:58;-23856.00;;;21.87;76.84
29385;BME280;16367;48.736;9.218;2022-07-23T03:46:01;-23856.00;;;21.87;77.22
29385;BME280;16367;48.736;9.218;2022-07-23T03:48:04;-23855.38;;;21.85;77.38
29385;BME280;16367;48.736;9.218;2022-07-23T03:50:09;-23853.47;;;21.79;77.58
29385;BME280;16367;48.736;9.218;2022-07-23T03:52:12;-23853.78;;;21.80;77.46
29385;BME280;16367;48.736;9.218;2022-07-23T03:54:15;-23851.28;;;21.72;77.97
29385;BME280;16367;48.736;9.218;2022-07-23T03:56:17;-23847.22;;;21.59;79.09
29385;BME280;16367;48.736;9.218;2022-07-23T03:58:20;-23845.34;;;21.52;79.59
29385;BME280;16367;48.736;9.218;2022-07-23T04:00:23;-23845.66;;;21.53;79.51
29385;BME280;16367;48.736;9.218;2022-07-23T04:02:26;-23847.53;;;21.60;79.88
29385;BME280;16367;48.736;9.218;2022-07-23T04:04:29;-23849.41;;;21.66;79.24
29385;BME280;16367;48.736;9.218;2022-07-23T04:06:33;-23846.59;;;21.57;80.32
29385;BME280;16367;48.736;9.218;2022-07-23T04:08:36;-23847.06;;;21.58;79.78
29385;BME280;16367;48.736;9.218;2022-07-23T04:10:39;-23848.31;;;21.62;79.46
29385;BME280;16367;48.736;9.218;2022-07-23T04:12:41;-23846.91;;;21.58;79.88
29385;BME280;16367;48.736;9.218;2022-07-23T04:14:44;-23850.50;;;21.69;79.41
29385;BME280;16367;48.736;9.218;2022-07-23T04:16:47;-23853.78;;;21.80;79.21
29385;BME280;16367;48.736;9.218;2022-07-23T04:18:50;-23856.31;;;21.88;78.75
29385;BME280;16367;48.736;9.218;2022-07-23T04:20:52;-23850.81;;;21.70;79.26
29385;BME280;16367;48.736;9.218;2022-07-23T04:22:56;-23850.19;;;21.68;79.65
29385;BME280;16367;48.736;9.218;2022-07-23T04:24:59;-23851.28;;;21.72;80.06
29385;BME280;16367;48.736;9.218;2022-07-23T04:27:03;-23853.78;;;21.80;79.09
29385;BME280;16367;48.736;9.218;2022-07-23T04:29:06;-23856.31;;;21.88;78.25
29385;BME280;16367;48.736;9.218;2022-07-23T04:31:08;-23857.56;;;21.92;78.22
29385;BME280;16367;48.736;9.218;2022-07-23T04:33:11;-23859.13;;;21.97;77.94
29385;BME280;16367;48.736;9.218;2022-07-23T04:35:14;-23853.47;;;21.79;78.00
29385;BME280;16367;48.736;9.218;2022-07-23T04:37:16;-23856.31;;;21.88;77.97
29385;BME280;16367;48.736;9.218;2022-07-23T04:39:21;-23856.63;;;21.89;78.09
29385;BME280;16367;48.736;9.218;2022-07-23T04:41:23;-23855.38;;;21.85;77.96
29385;BME280;16367;48.736;9.218;2022-07-23T04:43:26;-23851.44;;;21.72;78.83
29385;BME280;16367;48.736;9.218;2022-07-23T04:45:29;-23854.72;;;21.83;78.39
29385;BME280;16367;48.736;9.218;2022-07-23T04:47:32;-23853.16;;;21.78;78.83
29385;BME280;16367;48.736;9.218;2022-07-23T04:49:35;-23854.41;;;21.82;78.77
29385;BME280;16367;48.736;9.218;2022-07-23T04:51:38;-23856.63;;;21.89;78.17
29385;BME280;16367;48.736;9.218;2022-07-23T04:53:41;-23858.97;;;21.96;77.96
29385;BME280;16367;48.736;9.218;2022-07-23T04:55:45;-23865.38;;;22.17;77.19
29385;BME280;16367;48.736;9.218;2022-07-23T04:57:48;-23860.84;;;22.02;77.58
29385;BME280;16367;48.736;9.218;2022-07-23T04:59:51;-23858.97;;;21.96;77.89
29385;BME280;16367;48.736;9.218;2022-07-23T05:01:53;-23862.25;;;22.07;77.55
29385;BME280;16367;48.736;9.218;2022-07-23T05:03:56;-23865.22;;;22.16;76.48
29385;BME280;16367;48.736;9.218;2022-07-23T05:05:59;-23870.56;;;22.34;76.18
29385;BME280;16367;48.736;9.218;2022-07-23T05:08:02;-23874.31;;;22.46;75.44
29385;BME280;16367;48.736;9.218;2022-07-23T05:10:05;-23878.53;;;22.59;75.15
29385;BME280;16367;48.736;9.218;2022-07-23T05:12:09;-23888.56;;;22.91;73.54
29385;BME280;16367;48.736;9.218;2022-07-23T05:14:12;-23894.03;;;23.09;71.88
29385;BME280;16367;48.736;9.218;2022-07-23T05:16:15;-23892.00;;;23.03;73.23
29385;BME280;16367;48.736;9.218;2022-07-23T05:18:18;-23901.53;;;23.33;72.33
29385;BME280;16367;48.736;9.218;2022-07-23T05:20:20;-23905.75;;;23.47;70.37
29385;BME280;16367;48.736;9.218;2022-07-23T05:22:23;-23904.66;;;23.43;70.60
29385;BME280;16367;48.736;9.218;2022-07-23T05:24:26;-23918.56;;;23.88;68.58
29385;BME280;16367;48.736;9.218;2022-07-23T05:26:28;-23911.06;;;23.64;69.05
29385;BME280;16367;48.736;9.218;2022-07-23T05:28:33;-23897.31;;;23.20;71.40
29385;BME280;16367;48.736;9.218;2022-07-23T05:30:36;-23892.94;;;23.06;72.25
29385;BME280;16367;48.736;9.218;2022-07-23T05:32:38;-23894.03;;;23.09;72.83
29385;BME280;16367;48.736;9.218;2022-07-23T05:34:41;-23896.06;;;23.16;71.85
29385;BME280;16367;48.736;9.218;2022-07-23T05:36:44;-23889.03;;;22.93;73.25
29385;BME280;16367;48.736;9.218;2022-07-23T05:38:46;-23885.56;;;22.82;73.57
29385;BME280;16367;48.736;9.218;2022-07-23T05:40:49;-23884.16;;;22.77;74.69
29385;BME280;16367;48.736;9.218;2022-07-23T05:42:52;-23889.34;;;22.94;73.99
29385;BME280;16367;48.736;9.218;2022-07-23T05:44:56;-23889.19;;;22.93;74.80
29385;BME280;16367;48.736;9.218;2022-07-23T05:46:59;-23894.81;;;23.12;73.96
29385;BME280;16367;48.736;9.218;2022-07-23T05:49:02;-23893.25;;;23.07;74.20
29385;BME280;16367;48.736;9.218;2022-07-23T05:51:05;-23886.19;;;22.84;75.62
29385;BME280;16367;48.736;9.218;2022-07-23T05:53:08;-23886.53;;;22.85;76.56
29385;BME280;16367;48.736;9.218;2022-07-23T05:55:11;-23887.94;;;22.89;76.09
29385;BME280;16367;48.736;9.218;2022-07-23T05:57:14;-23882.28;;;22.71;76.21
29385;BME280;16367;48.736;9.218;2022-07-23T05:59:25;-23886.06;;;22.83;75.45
29385;BME280;16367;48.736;9.218;2022-07-23T06:01:29;-23897.78;;;23.21;74.07
29385;BME280;16367;48.736;9.218;2022-07-23T06:03:32;-23894.19;;;23.10;74.84
29385;BME280;16367;48.736;9.218;2022-07-23T06:05:35;-23897.31;;;23.20;75.27
29385;BME280;16367;48.736;9.218;2022-07-23T06:07:38;-23891.22;;;23.00;75.40
29385;BME280;16367;48.736;9.218;2022-07-23T06:09:40;-23884.66;;;22.79;76.38
29385;BME280;16367;48.736;9.218;2022-07-23T06:11:43;-23887.94;;;22.89;76.37
29385;BME280;16367;48.736;9.218;2022-07-23T06:13:46;-23891.06;;;22.99;74.80
29385;BME280;16367;48.736;9.218;2022-07-23T06:15:49;-23884.47;;;22.78;76.18
29385;BME280;16367;48.736;9.218;2022-07-23T06:17:53;-23886.06;;;22.83;76.10
29385;BME280;16367;48.736;9.218;2022-07-23T06:19:56;-23892.31;;;23.04;75.38
29385;BME280;16367;48.736;9.218;2022-07-23T06:21:59;-23904.19;;;23.42;73.20
29385;BME280;16367;48.736;9.218;2022-07-23T06:24:04;-23909.19;;;23.58;72.88
29385;BME280;16367;48.736;9.218;2022-07-23T06:26:07;-23909.81;;;23.60;73.37
29385;BME280;16367;48.736;9.218;2022-07-23T06:28:10;-23933.56;;;24.36;70.38
29385;BME280;16367;48.736;9.218;2022-07-23T06:30:13;-23965.41;;;25.39;65.87
29385;BME280;16367;48.736;9.218;2022-07-23T06:32:19;-23978.06;;;25.80;63.40
29385;BME280;16367;48.736;9.218;2022-07-23T06:34:26;-23980.69;;;25.88;62.67
29385;BME280;16367;48.736;9.218;2022-07-23T06:36:29;-23949.34;;;24.87;66.82
29385;BME280;16367;48.736;9.218;2022-07-23T06:38:33;-23943.72;;;24.69;69.17
29385;BME280;16367;48.736;9.218;2022-07-23T06:40:36;-23931.38;;;24.29;69.24
29385;BME280;16367;48.736;9.218;2022-07-23T06:42:42;-23911.69;;;23.66;70.80
29385;BME280;16367;48.736;9.218;2022-07-23T06:44:44;-23909.03;;;23.57;71.51
29385;BME280;16367;48.736;9.218;2022-07-23T06:46:47;-23910.28;;;23.61;71.16
29385;BME280;16367;48.736;9.218;2022-07-23T06:48:52;-23913.56;;;23.72;69.97
29385;BME280;16367;48.736;9.218;2022-07-23T06:50:56;-23918.41;;;23.88;69.34
29385;BME280;16367;48.736;9.218;2022-07-23T06:52:59;-23917.63;;;23.85;69.30
29385;BME280;16367;48.736;9.218;2022-07-23T06:55:03;-23928.28;;;24.19;67.92
29385;BME280;16367;48.736;9.218;2022-07-23T06:57:06;-23919.81;;;23.92;67.93
29385;BME280;16367;48.736;9.218;2022-07-23T06:59:09;-23915.28;;;23.78;68.37
29385;BME280;16367;48.736;9.218;2022-07-23T07:01:12;-23917.00;;;23.83;68.15
29385;BME280;16367;48.736;9.218;2022-07-23T07:03:16;-23929.50;;;24.23;67.04
29385;BME280;16367;48.736;9.218;2022-07-23T07:05:19;-23921.38;;;23.97;67.13
29385;BME280;16367;48.736;9.218;2022-07-23T07:07:23;-23912.63;;;23.69;68.98
29385;BME280;16367;48.736;9.218;2022-07-23T07:09:26;-23918.56;;;23.88;67.87
29385;BME280;16367;48.736;9.218;2022-07-23T07:11:29;-23923.56;;;24.04;68.01
29385;BME280;16367;48.736;9.218;2022-07-23T07:13:32;-23905.75;;;23.47;68.08
29385;BME280;16367;48.736;9.218;2022-07-23T07:15:35;-23902.31;;;23.36;69.08
29385;BME280;16367;48.736;9.218;2022-07-23T07:17:37;-23908.56;;;23.56;68.73
29385;BME280;16367;48.736;9.218;2022-07-23T07:19:40;-23904.34;;;23.42;68.79
29385;BME280;16367;48.736;9.218;2022-07-23T07:21:43;-23909.81;;;23.60;68.81
29385;BME280;16367;48.736;9.218;2022-07-23T07:23:48;-23904.03;;;23.41;69.70
29385;BME280;16367;48.736;9.218;2022-07-23T07:25:51;-23910.13;;;23.61;68.79
29385;BME280;16367;48.736;9.218;2022-07-23T07:27:54;-23913.56;;;23.72;68.68
29385;BME280;16367;48.736;9.218;2022-07-23T07:29:56;-23911.38;;;23.65;68.46
29385;BME280;16367;48.736;9.218;2022-07-23T07:31:59;-23905.28;;;23.45;67.88
29385;BME280;16367;48.736;9.218;2022-07-23T07:34:02;-23895.75;;;23.15;68.16
29385;BME280;16367;48.736;9.218;2022-07-23T07:36:09;-23900.28;;;23.29;68.45
29385;BME280;16367;48.736;9.218;2022-07-23T07:38:19;-23893.72;;;23.08;68.65
29385;BME280;16367;48.736;9.218;2022-07-23T07:40:23;-23899.97;;;23.28;68.75
29385;BME280;16367;48.736;9.218;2022-07-23T07:42:34;-23889.97;;;22.96;69.82
29385;BME280;16367;48.736;9.218;2022-07-23T07:44:37;-23893.88;;;23.09;70.58
29385;BME280;16367;48.736;9.218;2022-07-23T07:46:40;-23901.06;;;23.32;69.90
29385;BME280;16367;48.736;9.218;2022-07-23T07:48:43;-23938.88;;;24.54;65.83
29385;BME280;16367;48.736;9.218;2022-07-23T07:50:46;-23962.75;;;25.31;62.70
29385;BME280;16367;48.736;9.218;2022-07-23T07:52:50;-23973.84;;;25.66;60.44
29385;BME280;16367;48.736;9.218;2022-07-23T07:54:52;-23983.19;;;25.97;60.02
29385;BME280;16367;48.736;9.218;2022-07-23T07:56:57;-24010.16;;;26.84;56.87
29385;BME280;16367;48.736;9.218;2022-07-23T07:58:59;-24022.47;;;27.23;56.46
29385;BME280;16367;48.736;9.218;2022-07-23T08:01:02;-24000.66;;;26.53;57.70
29385;BME280;16367;48.736;9.218;2022-07-23T08:03:05;-24045.81;;;27.99;55.22
29385;BME280;16367;48.736;9.218;2022-07-23T08:05:08;-24002.69;;;26.59;58.76
29385;BME280;16367;48.736;9.218;2022-07-23T08:07:12;-23979.16;;;25.83;62.30
29385;BME280;16367;48.736;9.218;2022-07-23T08:09:15;-23979.63;;;25.85;62.01
29385;BME280;16367;48.736;9.218;2022-07-23T08:11:17;-23989.13;;;26.16;62.21
29385;BME280;16367;48.736;9.218;2022-07-23T08:13:21;-24026.03;;;27.35;58.58
29385;BME280;16367;48.736;9.218;2022-07-23T08:15:25;-23981.31;;;25.91;60.83
29385;BME280;16367;48.736;9.218;2022-07-23T08:17:29;-23959.19;;;25.19;63.80
29385;BME280;16367;48.736;9.218;2022-07-23T08:19:33;-23950.75;;;24.92;63.85
29385;BME280;16367;48.736;9.218;2022-07-23T08:21:36;-23942.63;;;24.66;64.89
29385;BME280;16367;48.736;9.218;2022-07-23T08:23:39;-23956.69;;;25.11;62.81
29385;BME280;16367;48.736;9.218;2022-07-23T08:25:42;-23951.22;;;24.93;63.37
29385;BME280;16367;48.736;9.218;2022-07-23T08:27:45;-23928.41;;;24.20;65.72
29385;BME280;16367;48.736;9.218;2022-07-23T08:29:49;-23917.00;;;23.83;66.25
29385;BME280;16367;48.736;9.218;2022-07-23T08:31:52;-23915.59;;;23.79;68.19
29385;BME280;16367;48.736;9.218;2022-07-23T08:33:55;-23899.03;;;23.25;70.02
29385;BME280;16367;48.736;9.218;2022-07-23T08:36:00;-23904.81;;;23.44;70.83
29385;BME280;16367;48.736;9.218;2022-07-23T08:38:06;-23898.56;;;23.24;71.41
29385;BME280;16367;48.736;9.218;2022-07-23T08:40:10;-23910.13;;;23.61;72.44
29385;BME280;16367;48.736;9.218;2022-07-23T08:42:13;-23940.44;;;24.59;66.92
29385;BME280;16367;48.736;9.218;2022-07-23T08:44:16;-23938.41;;;24.52;64.29
29385;BME280;16367;48.736;9.218;2022-07-23T08:46:21;-23951.06;;;24.93;63.05
29385;BME280;16367;48.736;9.218;2022-07-23T08:48:25;-23945.75;;;24.76;64.05
29385;BME280;16367;48.736;9.218;2022-07-23T08:50:29;-23980.69;;;25.88;59.55
29385;BME280;16367;48.736;9.218;2022-07-23T08:52:32;-24002.38;;;26.58;56.16
29385;BME280;16367;48.736;9.218;2022-07-23T08:54:37;-23979.44;;;25.84;59.58
29385;BME280;16367;48.736;9.218;2022-07-23T08:56:40;-24010.78;;;26.86;54.28
29385;BME280;16367;48.736;9.218;2022-07-23T08:58:43;-24027.44;;;27.40;53.00
29385;BME280;16367;48.736;9.218;2022-07-23T09:00:46;-23978.38;;;25.81;57.92
29385;BME280;16367;48.736;9.218;2022-07-23T09:02:52;-24005.94;;;26.70;55.37
29385;BME280;16367;48.736;9.218;2022-07-23T09:04:55;-24018.41;;;27.10;54.13
29385;BME280;16367;48.736;9.218;2022-07-23T09:06:58;-23980.84;;;25.89;57.21
29385;BME280;16367;48.736;9.218;2022-07-23T09:09:16;-24031.19;;;27.52;52.95
29385;BME280;16367;48.736;9.218;2022-07-23T09:11:19;-24010.00;;;26.83;54.66
29385;BME280;16367;48.736;9.218;2022-07-23T09:13:33;-24023.06;;;27.25;52.64
29385;BME280;16367;48.736;9.218;2022-07-23T09:15:48;-24031.50;;;27.53;52.90
29385;BME280;16367;48.736;9.218;2022-07-23T09:17:56;-24025.88;;;27.34;53.64
29385;BME280;16367;48.736;9.218;2022-07-23T09:20:08;-24056.69;;;28.34;50.98
29385;BME280;16367;48.736;9.218;2022-07-23T09:22:21;-24058.22;;;28.39;49.97
29385;BME280;16367;48.736;9.218;2022-07-23T09:24:28;-24083.88;;;29.22;47.84
29385;BME280;16367;48.736;9.218;2022-07-23T09:26:34;-24035.38;;;27.65;50.10
29385;BME280;16367;48.736;9.218;2022-07-23T09:28:49;-24063.38;;;28.56;48.66
29385;BME280;16367;48.736;9.218;2022-07-23T09:30:52;-24058.22;;;28.39;48.04
29385;BME280;16367;48.736;9.218;2022-07-23T09:33:07;-24109.47;;;30.05;45.37
29385;BME280;16367;48.736;9.218;2022-07-23T09:35:10;-24138.31;;;30.99;43.64
29385;BME280;16367;48.736;9.218;2022-07-23T09:37:15;-24096.91;;;29.65;45.00
29385;BME280;16367;48.736;9.218;2022-07-23T09:39:25;-24098.59;;;29.70;45.62
29385;BME280;16367;48.736;9.218;2022-07-23T09:41:34;-24104.19;;;29.88;45.79
29385;BME280;16367;48.736;9.218;2022-07-23T09:43:37;-24157.97;;;31.63;41.99
29385;BME280;16367;48.736;9.218;2022-07-23T09:45:40;-24163.41;;;31.81;42.26
29385;BME280;16367;48.736;9.218;2022-07-23T09:47:44;-24106.69;;;29.96;44.94
29385;BME280;16367;48.736;9.218;2022-07-23T09:50:00;-24149.78;;;31.36;42.06
29385;BME280;16367;48.736;9.218;2022-07-23T09:52:07;-24132.28;;;30.79;43.41
29385;BME280;16367;48.736;9.218;2022-07-23T09:54:21;-24137.53;;;30.97;42.50
29385;BME280;16367;48.736;9.218;2022-07-23T09:56:26;-24178.56;;;32.30;39.97
29385;BME280;16367;48.736;9.218;2022-07-23T09:58:30;-24189.69;;;32.66;40.18
29385;BME280;16367;48.736;9.218;2022-07-23T10:00:33;-24166.66;;;31.91;41.99
29385;BME280;16367;48.736;9.218;2022-07-23T10:02:37;-24097.53;;;29.67;46.28
29385;BME280;16367;48.736;9.218;2022-07-23T10:04:40;-24123.44;;;30.51;45.42
29385;BME280;16367;48.736;9.218;2022-07-23T10:06:45;-24054.97;;;28.29;48.62
29385;BME280;16367;48.736;9.218;2022-07-23T10:08:51;-24110.88;;;30.10;45.81
29385;BME280;16367;48.736;9.218;2022-07-23T10:10:55;-24143.25;;;31.15;43.58
29385;BME280;16367;48.736;9.218;2022-07-23T10:12:59;-24136.91;;;30.95;43.35
29385;BME280;16367;48.736;9.218;2022-07-23T10:15:22;-24103.59;;;29.86;45.89
29385;BME280;16367;48.736;9.218;2022-07-23T10:17:28;-24131.19;;;30.76;44.48
29385;BME280;16367;48.736;9.218;2022-07-23T10:19:32;-24095.19;;;29.59;46.19
29385;BME280;16367;48.736;9.218;2022-07-23T10:21:39;-24106.06;;;29.94;46.40
29385;BME280;16367;48.736;9.218;2022-07-23T10:23:49;-24080.91;;;29.13;46.39
29385;BME280;16367;48.736;9.218;2022-07-23T10:25:59;-24093.97;;;29.55;45.76
29385;BME280;16367;48.736;9.218;2022-07-23T10:28:26;-24090.84;;;29.45;47.20
29385;BME280;16367;48.736;9.218;2022-07-23T10:30:40;-24070.66;;;28.80;48.55
29385;BME280;16367;48.736;9.218;2022-07-23T10:32:52;-24085.75;;;29.28;48.14
29385;BME280;16367;48.736;9.218;2022-07-23T10:35:09;-24068.50;;;28.72;47.81
29385;BME280;16367;48.736;9.218;2022-07-23T10:37:16;-24068.34;;;28.72;47.99
29385;BME280;16367;48.736;9.218;2022-07-23T10:39:29;-24041.91;;;27.86;49.93
29385;BME280;16367;48.736;9.218;2022-07-23T10:41:33;-24046.72;;;28.02;50.16
29385;BME280;16367;48.736;9.218;2022-07-23T10:43:37;-24053.88;;;28.25;50.51
29385;BME280;16367;48.736;9.218;2022-07-23T10:45:39;-24018.88;;;27.12;52.39
29385;BME280;16367;48.736;9.218;2022-07-23T10:47:42;-24051.72;;;28.18;51.00
29385;BME280;16367;48.736;9.218;2022-07-23T10:49:48;-24065.38;;;28.62;49.96
29385;BME280;16367;48.736;9.218;2022-07-23T10:52:20;-24082.16;;;29.17;48.44